createdAt,value
2018-09-22T00:02:18.623Z,44.70
2018-09-22T00:04:46.782Z,44.70
2018-09-22T00:07:14.879Z,44.80
2018-09-22T00:09:43.008Z,44.70
2018-09-22T00:12:11.152Z,44.80
2018-09-22T00:14:39.423Z,44.80
2018-09-22T00:17:07.712Z,44.70
2018-09-22T00:19:36.192Z,44.80
2018-09-22T00:22:04.653Z,44.80
2018-09-22T00:24:32.901Z,44.80
2018-09-22T00:27:00.990Z,44.90
2018-09-22T00:29:29.135Z,44.80
2018-09-22T00:31:57.283Z,44.90
2018-09-22T00:34:25.631Z,44.90
2018-09-22T00:36:54.097Z,44.80
2018-09-22T00:39:22.568Z,44.70
2018-09-22T00:41:51.074Z,44.80
2018-09-22T00:44:19.494Z,44.80
2018-09-22T00:46:47.921Z,44.80
2018-09-22T00:49:16.072Z,44.80
2018-09-22T00:51:44.247Z,44.90
2018-09-22T00:54:12.415Z,44.90
2018-09-22T00:56:40.863Z,44.80
2018-09-22T00:59:09.165Z,44.90
2018-09-22T01:01:37.635Z,44.90
2018-09-22T01:04:06.100Z,44.80
2018-09-22T01:06:34.540Z,44.80
2018-09-22T01:09:03.104Z,44.90
2018-09-22T01:11:31.273Z,44.90
2018-09-22T01:13:59.415Z,45.10
2018-09-22T01:16:27.581Z,45.00
2018-09-22T01:18:56.214Z,45.00
2018-09-22T01:21:24.957Z,44.90
2018-09-22T01:23:53.439Z,45.10
2018-09-22T01:26:21.640Z,45.10
2018-09-22T01:28:50.295Z,45.10
2018-09-22T01:31:18.489Z,45.00
2018-09-22T01:33:46.751Z,45.10
2018-09-22T01:36:14.903Z,45.20
2018-09-22T01:38:43.096Z,45.20
2018-09-22T01:41:11.275Z,45.20
2018-09-22T01:43:39.464Z,45.20
2018-09-22T01:46:07.739Z,45.20
2018-09-22T01:48:36.082Z,45.10
2018-09-22T01:51:04.456Z,45.20
2018-09-22T01:53:32.902Z,45.10
2018-09-22T01:56:01.027Z,45.20
2018-09-22T01:58:29.307Z,45.20
2018-09-22T02:00:57.484Z,45.20
2018-09-22T02:03:25.630Z,45.30
2018-09-22T02:05:53.930Z,45.30
2018-09-22T02:08:22.419Z,45.30
2018-09-22T02:10:50.733Z,45.30
2018-09-22T02:13:19.044Z,45.40
2018-09-22T02:15:47.170Z,45.30
2018-09-22T02:18:15.314Z,45.30
2018-09-22T02:20:43.495Z,45.20
2018-09-22T02:23:11.947Z,45.20
2018-09-22T02:25:40.985Z,45.30
2018-09-22T02:28:09.331Z,45.40
2018-09-22T02:30:37.700Z,45.30
2018-09-22T02:33:05.950Z,45.30
2018-09-22T02:35:34.130Z,45.20
2018-09-22T02:38:02.246Z,45.30
2018-09-22T02:40:30.410Z,45.20
2018-09-22T02:42:58.598Z,45.30
2018-09-22T02:45:27.172Z,45.40
2018-09-22T02:47:55.629Z,45.20
2018-09-22T02:50:24.012Z,45.40
2018-09-22T02:52:52.293Z,45.30
2018-09-22T02:55:20.442Z,45.20
2018-09-22T02:57:48.582Z,45.20
2018-09-22T03:00:16.743Z,45.30
2018-09-22T03:02:45.069Z,45.20
2018-09-22T03:05:13.547Z,45.20
2018-09-22T03:07:41.791Z,45.20
2018-09-22T03:10:10.004Z,45.20
2018-09-22T03:12:38.223Z,45.20
2018-09-22T03:15:06.658Z,45.30
2018-09-22T03:17:34.900Z,45.30
2018-09-22T03:20:03.267Z,45.30
2018-09-22T03:22:32.339Z,45.40
2018-09-22T03:25:00.609Z,45.30
2018-09-22T03:27:29.062Z,45.30
2018-09-22T03:29:57.615Z,45.30
2018-09-22T03:32:25.915Z,45.50
2018-09-22T03:34:54.223Z,45.00
2018-09-22T03:37:22.391Z,45.40
2018-09-22T03:39:50.518Z,45.40
2018-09-22T03:42:18.955Z,45.30
2018-09-22T03:44:47.688Z,45.40
2018-09-22T03:47:16.112Z,45.30
2018-09-22T03:49:44.316Z,45.40
2018-09-22T03:52:12.511Z,45.50
2018-09-22T03:54:40.688Z,45.40
2018-09-22T03:57:08.812Z,45.30
2018-09-22T03:59:37.239Z,45.40
2018-09-22T04:02:05.908Z,45.40
2018-09-22T04:04:34.339Z,45.50
2018-09-22T04:07:02.620Z,45.40
2018-09-22T04:09:30.772Z,45.40
2018-09-22T04:11:58.884Z,45.40
2018-09-22T04:14:27.029Z,45.50
2018-09-22T04:16:55.337Z,45.50
2018-09-22T04:19:23.717Z,45.50
2018-09-22T04:21:51.915Z,45.50
2018-09-22T04:24:20.731Z,45.60
2018-09-22T04:26:50.242Z,45.50
2018-09-22T04:29:19.015Z,45.50
2018-09-22T04:31:47.398Z,45.60
2018-09-22T04:34:15.683Z,45.60
2018-09-22T04:36:44.215Z,45.60
2018-09-22T04:39:12.391Z,45.60
2018-09-22T04:41:41.888Z,45.60
2018-09-22T04:44:10.201Z,45.60
2018-09-22T04:46:38.785Z,45.60
2018-09-22T04:49:07.060Z,45.80
2018-09-22T04:51:35.320Z,45.80
2018-09-22T04:54:03.463Z,45.60
2018-09-22T04:56:31.612Z,45.60
2018-09-22T04:58:59.768Z,45.70
2018-09-22T05:01:28.509Z,45.70
2018-09-22T05:03:56.867Z,45.70
2018-09-22T05:06:25.024Z,45.80
2018-09-22T05:08:53.275Z,45.80
2018-09-22T05:11:21.549Z,46.30
2018-09-22T05:13:49.680Z,45.80
2018-09-22T05:16:17.921Z,45.80
2018-09-22T05:18:46.083Z,45.70
2018-09-22T05:21:14.369Z,45.70
2018-09-22T05:23:42.585Z,45.70
2018-09-22T05:26:10.760Z,46.40
2018-09-22T05:28:38.871Z,45.80
2018-09-22T05:31:11.144Z,45.80
2018-09-22T05:33:39.349Z,45.80
2018-09-22T05:36:07.507Z,45.80
2018-09-22T05:38:35.667Z,45.80
2018-09-22T05:41:03.839Z,45.70
2018-09-22T05:43:32.219Z,45.70
2018-09-22T05:46:00.559Z,45.60
2018-09-22T05:48:28.722Z,45.70
2018-09-22T05:50:56.851Z,45.70
2018-09-22T05:53:24.983Z,45.80
2018-09-22T05:55:53.277Z,45.60
2018-09-22T05:58:21.943Z,45.70
2018-09-22T06:00:50.366Z,45.40
2018-09-22T06:03:18.825Z,45.40
2018-09-22T06:05:47.761Z,45.40
2018-09-22T06:08:15.903Z,45.40
2018-09-22T06:10:44.064Z,45.20
2018-09-22T06:13:12.215Z,45.30
2018-09-22T06:15:40.779Z,45.30
2018-09-22T06:18:09.332Z,45.20
2018-09-22T06:20:37.718Z,45.30
2018-09-22T06:23:06.463Z,45.40
2018-09-22T06:25:34.691Z,45.40
2018-09-22T06:28:03.506Z,45.40
2018-09-22T06:30:31.943Z,45.40
2018-09-22T06:33:00.624Z,45.30
2018-09-22T06:35:29.198Z,45.30
2018-09-22T06:37:57.687Z,45.20
2018-09-22T06:40:26.255Z,45.20
2018-09-22T06:42:54.868Z,45.10
2018-09-22T06:45:23.345Z,45.20
2018-09-22T06:47:51.728Z,45.20
2018-09-22T06:50:19.963Z,45.10
2018-09-22T06:52:48.248Z,45.10
2018-09-22T06:55:16.551Z,45.00
2018-09-22T06:57:44.882Z,45.00
2018-09-22T07:00:13.064Z,44.90
2018-09-22T07:02:41.379Z,44.90
2018-09-22T07:05:09.616Z,45.00
2018-09-22T07:07:37.996Z,44.90
2018-09-22T07:10:06.293Z,44.90
2018-09-22T07:12:34.759Z,44.90
2018-09-22T07:15:02.927Z,44.90
2018-09-22T07:17:31.144Z,44.80
2018-09-22T07:19:59.318Z,44.70
2018-09-22T07:22:33.005Z,44.60
2018-09-22T07:25:01.218Z,44.60
2018-09-22T07:27:29.373Z,44.60
2018-09-22T07:29:57.545Z,44.60
2018-09-22T07:32:25.731Z,44.50
2018-09-22T07:34:54.406Z,44.50
2018-09-22T07:37:23.262Z,44.40
2018-09-22T07:39:51.777Z,44.30
2018-09-22T07:42:20.259Z,44.30
2018-09-22T07:44:48.787Z,44.10
2018-09-22T07:47:16.916Z,44.00
2018-09-22T07:49:45.090Z,43.90
2018-09-22T07:52:13.270Z,43.60
2018-09-22T07:54:41.543Z,43.70
2018-09-22T07:57:09.777Z,43.50
2018-09-22T07:59:38.187Z,43.40
2018-09-22T08:02:06.349Z,43.30
2018-09-22T08:04:34.503Z,43.30
2018-09-22T08:07:02.716Z,43.00
2018-09-22T08:09:31.202Z,43.00
2018-09-22T08:11:59.379Z,42.90
2018-09-22T08:14:27.876Z,42.70
2018-09-22T08:16:56.017Z,42.80
2018-09-22T08:19:24.206Z,42.80
2018-09-22T08:21:52.479Z,42.90
2018-09-22T08:24:20.864Z,42.70
2018-09-22T08:26:49.102Z,42.40
2018-09-22T08:29:17.371Z,42.20
2018-09-22T08:31:45.574Z,42.10
2018-09-22T08:34:13.758Z,42.00
2018-09-22T08:36:42.242Z,42.00
2018-09-22T08:39:12.020Z,42.00
2018-09-22T08:41:40.418Z,42.30
2018-09-22T08:44:08.720Z,42.70
2018-09-22T08:46:37.444Z,42.50
2018-09-22T08:49:05.943Z,42.20
2018-09-22T08:51:34.282Z,42.50
2018-09-22T08:54:02.415Z,42.80
2018-09-22T08:56:30.677Z,42.90
2018-09-22T08:58:59.085Z,43.70
2018-09-22T09:01:27.331Z,43.40
2018-09-22T09:03:55.448Z,43.60
2018-09-22T09:06:23.709Z,43.70
2018-09-22T09:08:51.885Z,43.40
2018-09-22T09:11:20.207Z,43.40
2018-09-22T09:13:48.482Z,42.90
2018-09-22T09:16:16.888Z,42.40
2018-09-22T09:18:45.003Z,42.40
2018-09-22T09:21:13.165Z,42.10
2018-09-22T09:23:41.544Z,41.90
2018-09-22T09:26:09.742Z,42.30
2018-09-22T09:28:38.153Z,42.70
2018-09-22T09:31:06.275Z,43.00
2018-09-22T09:33:34.448Z,42.90
2018-09-22T09:36:02.639Z,42.60
2018-09-22T09:38:33.565Z,42.10
2018-09-22T09:41:01.725Z,41.90
2018-09-22T09:43:30.126Z,41.80
2018-09-22T09:45:58.597Z,41.60
2018-09-22T09:48:26.852Z,41.40
2018-09-22T09:50:55.005Z,41.00
2018-09-22T09:53:23.171Z,41.30
2018-09-22T09:55:51.595Z,41.20
2018-09-22T09:58:19.999Z,40.90
2018-09-22T10:00:48.279Z,40.70
2018-09-22T10:03:17.772Z,40.60
2018-09-22T10:05:46.689Z,40.50
2018-09-22T10:08:15.107Z,39.90
2018-09-22T10:10:43.407Z,39.50
2018-09-22T10:13:11.543Z,39.20
2018-09-22T10:15:39.945Z,39.10
2018-09-22T10:18:08.271Z,39.20
2018-09-22T10:20:36.603Z,39.50
2018-09-22T10:23:04.751Z,39.00
2018-09-22T10:25:32.865Z,38.90
2018-09-22T10:28:01.266Z,38.90
2018-09-22T10:30:29.531Z,38.90
2018-09-22T10:32:57.947Z,38.60
2018-09-22T10:35:26.083Z,38.40
2018-09-22T10:37:54.255Z,38.30
2018-09-22T10:40:22.592Z,38.10
2018-09-22T10:42:50.905Z,38.00
2018-09-22T10:45:19.216Z,37.80
2018-09-22T10:47:47.367Z,37.80
2018-09-22T10:50:15.504Z,37.60
2018-09-22T10:52:43.704Z,37.10
2018-09-22T10:55:12.056Z,36.90
2018-09-22T10:57:40.203Z,36.50
2018-09-22T11:00:08.327Z,36.40
2018-09-22T11:02:36.476Z,36.00
2018-09-22T11:05:04.706Z,35.20
2018-09-22T11:07:32.919Z,34.90
2018-09-22T11:10:01.307Z,34.40
2018-09-22T11:12:29.479Z,34.00
2018-09-22T11:14:57.892Z,33.80
2018-09-22T11:17:26.045Z,33.60
2018-09-22T11:19:54.335Z,32.30
2018-09-22T11:22:22.579Z,31.90
2018-09-22T11:24:50.897Z,32.00
2018-09-22T11:27:19.098Z,30.80
2018-09-22T11:29:47.227Z,31.40
2018-09-22T11:32:15.635Z,31.70
2018-09-22T11:34:44.206Z,32.00
2018-09-22T11:37:12.465Z,32.80
2018-09-22T11:39:40.563Z,33.10
2018-09-22T11:42:08.730Z,33.10
2018-09-22T11:44:36.967Z,32.90
2018-09-22T11:47:05.308Z,33.00
2018-09-22T11:49:33.641Z,33.70
2018-09-22T11:52:01.781Z,34.80
2018-09-22T11:54:29.956Z,35.30
2018-09-22T11:56:58.337Z,35.10
2018-09-22T11:59:26.763Z,35.10
2018-09-22T12:01:55.917Z,35.20
2018-09-22T12:04:24.465Z,35.10
2018-09-22T12:06:52.719Z,35.20
2018-09-22T12:09:20.856Z,35.60
2018-09-22T12:11:49.278Z,36.10
2018-09-22T12:14:17.763Z,36.70
2018-09-22T12:16:46.145Z,37.20
2018-09-22T12:19:14.444Z,37.30
2018-09-22T12:21:42.619Z,37.50
2018-09-22T12:24:10.792Z,37.80
2018-09-22T12:26:39.603Z,37.90
2018-09-22T12:29:07.724Z,38.10
2018-09-22T12:31:35.853Z,38.30
2018-09-22T12:34:03.973Z,38.60
2018-09-22T12:36:32.095Z,38.50
2018-09-22T12:39:00.522Z,38.70
2018-09-22T12:41:28.919Z,39.20
2018-09-22T12:43:57.063Z,39.50
2018-09-22T12:46:25.237Z,39.50
2018-09-22T12:48:53.528Z,39.60
2018-09-22T12:51:21.779Z,39.80
2018-09-22T12:53:50.424Z,40.40
2018-09-22T12:56:19.034Z,40.60
2018-09-22T12:58:47.141Z,40.50
2018-09-22T13:01:15.990Z,40.70
2018-09-22T13:03:44.228Z,40.80
2018-09-22T13:06:12.511Z,40.90
2018-09-22T13:08:40.688Z,40.50
2018-09-22T13:11:08.812Z,40.80
2018-09-22T13:13:37.131Z,40.80
2018-09-22T13:16:05.524Z,40.70
2018-09-22T13:18:34.658Z,40.70
2018-09-22T13:21:02.926Z,40.50
2018-09-22T13:23:31.031Z,40.50
2018-09-22T13:25:59.166Z,40.40
2018-09-22T13:28:27.293Z,40.40
2018-09-22T13:30:55.691Z,40.40
2018-09-22T13:33:24.372Z,40.40
2018-09-22T13:35:52.631Z,40.30
2018-09-22T13:38:20.804Z,40.20
2018-09-22T13:40:49.099Z,40.10
2018-09-22T13:43:17.515Z,39.90
2018-09-22T13:45:45.943Z,39.90
2018-09-22T13:48:14.083Z,39.70
2018-09-22T13:50:42.780Z,39.40
2018-09-22T13:53:10.893Z,39.20
2018-09-22T13:55:39.323Z,38.90
2018-09-22T13:58:07.486Z,38.60
2018-09-22T14:00:35.672Z,38.10
2018-09-22T14:03:03.792Z,37.90
2018-09-22T14:05:32.105Z,38.10
2018-09-22T14:08:00.510Z,38.20
2018-09-22T14:10:29.509Z,38.50
2018-09-22T14:12:57.700Z,38.80
2018-09-22T14:15:25.803Z,39.00
2018-09-22T14:17:53.911Z,39.40
2018-09-22T14:20:22.664Z,39.50
2018-09-22T14:22:50.783Z,39.60
2018-09-22T14:25:18.910Z,39.80
2018-09-22T14:27:47.055Z,39.80
2018-09-22T14:30:15.297Z,39.90
2018-09-22T14:32:44.211Z,40.00
2018-09-22T14:35:12.548Z,40.00
2018-09-22T14:37:40.919Z,40.20
2018-09-22T14:40:09.129Z,40.40
2018-09-22T14:42:37.533Z,40.40
2018-09-22T14:45:05.934Z,40.70
2018-09-22T14:47:34.516Z,40.90
2018-09-22T14:50:03.727Z,40.30
2018-09-22T14:52:31.939Z,41.20
2018-09-22T14:55:00.062Z,41.30
2018-09-22T14:57:28.371Z,41.40
2018-09-22T14:59:56.562Z,41.60
2018-09-22T15:02:24.695Z,41.80
2018-09-22T15:04:52.791Z,41.70
2018-09-22T15:07:21.224Z,41.60
2018-09-22T15:09:49.767Z,42.60
2018-09-22T15:12:18.103Z,41.70
2018-09-22T15:14:47.351Z,41.60
2018-09-22T15:17:15.524Z,41.50
2018-09-22T15:19:43.591Z,41.50
2018-09-22T15:22:11.951Z,41.90
2018-09-22T15:24:40.349Z,41.80
2018-09-22T15:27:08.469Z,41.90
2018-09-22T15:29:36.594Z,42.00
2018-09-22T15:32:04.918Z,42.10
2018-09-22T15:34:33.607Z,42.10
2018-09-22T15:37:02.262Z,42.40
2018-09-22T15:39:30.863Z,42.50
2018-09-22T15:41:59.223Z,42.40
2018-09-22T15:44:27.709Z,42.40
2018-09-22T15:46:56.476Z,42.60
2018-09-22T15:49:25.213Z,42.80
2018-09-22T15:51:53.939Z,43.10
2018-09-22T15:54:22.446Z,43.20
2018-09-22T15:56:50.789Z,43.40
2018-09-22T15:59:18.988Z,44.00
2018-09-22T16:01:47.820Z,43.40
2018-09-22T16:04:17.000Z,43.40
2018-09-22T16:06:45.611Z,43.50
2018-09-22T16:09:13.968Z,43.50
2018-09-22T16:11:42.392Z,43.60
2018-09-22T16:14:10.739Z,43.70
2018-09-22T16:16:39.095Z,43.70
2018-09-22T16:19:07.339Z,43.60
2018-09-22T16:21:35.840Z,43.70
2018-09-22T16:24:04.161Z,43.90
2018-09-22T16:26:32.407Z,43.90
2018-09-22T16:29:00.862Z,44.00
2018-09-22T16:31:29.263Z,44.00
2018-09-22T16:33:57.567Z,44.40
2018-09-22T16:36:25.692Z,44.20
2018-09-22T16:38:54.707Z,44.10
2018-09-22T16:41:23.078Z,44.30
2018-09-22T16:43:51.549Z,44.40
2018-09-22T16:46:19.719Z,44.30
2018-09-22T16:48:48.115Z,44.40
2018-09-22T16:51:16.894Z,44.90
2018-09-22T16:53:45.678Z,44.40
2018-09-22T16:56:14.762Z,44.60
2018-09-22T16:58:43.168Z,44.60
2018-09-22T17:01:11.903Z,44.60
2018-09-22T17:03:40.079Z,44.70
2018-09-22T17:06:08.177Z,44.60
2018-09-22T17:08:36.463Z,44.60
2018-09-22T17:11:05.304Z,44.60
2018-09-22T17:13:33.634Z,44.70
2018-09-22T17:16:01.868Z,44.70
2018-09-22T17:18:30.348Z,44.60
2018-09-22T17:20:58.689Z,44.70
2018-09-22T17:23:27.103Z,44.80
2018-09-22T17:25:55.215Z,44.80
2018-09-22T17:28:23.384Z,44.80
2018-09-22T17:30:51.896Z,44.80
2018-09-22T17:33:20.199Z,45.00
2018-09-22T17:35:48.553Z,45.00
2018-09-22T17:38:16.858Z,45.10
2018-09-22T17:40:45.104Z,45.00
2018-09-22T17:43:13.783Z,45.00
2018-09-22T17:45:42.207Z,45.10
2018-09-22T17:48:10.343Z,45.20
2018-09-22T17:50:38.497Z,45.10
2018-09-22T17:53:06.922Z,45.20
2018-09-22T17:55:35.151Z,45.30
2018-09-22T17:58:03.288Z,45.40
2018-09-22T18:00:31.399Z,45.30
2018-09-22T18:02:59.735Z,45.20
2018-09-22T18:05:27.847Z,45.20
2018-09-22T18:07:55.972Z,45.20
2018-09-22T18:10:24.094Z,45.40
2018-09-22T18:12:52.500Z,45.30
2018-09-22T18:15:20.764Z,45.40
2018-09-22T18:17:49.238Z,45.20
2018-09-22T18:20:17.710Z,45.40
2018-09-22T18:22:45.855Z,45.30
2018-09-22T18:25:14.221Z,45.30
2018-09-22T18:27:43.035Z,45.30
2018-09-22T18:30:11.198Z,45.40
2018-09-22T18:32:39.303Z,45.50
2018-09-22T18:35:07.576Z,45.40
2018-09-22T18:37:35.803Z,45.50
2018-09-22T18:40:03.939Z,45.40
2018-09-22T18:42:32.118Z,45.60
2018-09-22T18:45:00.432Z,45.60
2018-09-22T18:47:28.716Z,45.70
2018-09-22T18:49:56.879Z,45.50
2018-09-22T18:52:25.012Z,45.50
2018-09-22T18:54:53.363Z,45.70
2018-09-22T18:57:21.783Z,45.70
2018-09-22T18:59:50.281Z,45.60
2018-09-22T19:02:18.363Z,45.70
2018-09-22T19:04:46.493Z,45.60
2018-09-22T19:07:14.917Z,45.60
2018-09-22T19:09:43.290Z,45.80
2018-09-22T19:12:11.420Z,45.80
2018-09-22T19:14:46.246Z,45.90
2018-09-22T19:17:25.136Z,45.80
2018-09-22T19:20:00.796Z,45.70
2018-09-22T19:22:31.988Z,45.70
2018-09-22T19:25:05.138Z,45.70
2018-09-22T19:27:37.504Z,45.80
2018-09-22T19:30:11.188Z,45.80
2018-09-22T19:32:44.049Z,45.60
2018-09-22T19:35:19.212Z,45.70
2018-09-22T19:37:50.871Z,45.80
2018-09-22T19:40:22.818Z,45.80
2018-09-22T19:42:55.632Z,45.90
2018-09-22T19:45:30.867Z,46.00
2018-09-22T19:48:06.867Z,45.90
2018-09-22T19:50:54.796Z,45.90
2018-09-22T19:53:22.877Z,46.00
2018-09-22T19:55:51.123Z,46.00
2018-09-22T19:58:19.290Z,46.00
2018-09-22T20:00:47.615Z,46.10
2018-09-22T20:03:15.991Z,46.00
2018-09-22T20:05:44.159Z,46.10
2018-09-22T20:08:12.291Z,46.00
2018-09-22T20:10:40.597Z,46.00
2018-09-22T20:13:08.955Z,46.00
2018-09-22T20:15:37.086Z,45.90
2018-09-22T20:18:05.497Z,46.00
2018-09-22T20:20:33.780Z,46.00
2018-09-22T20:23:01.896Z,46.80
2018-09-22T20:25:30.061Z,46.00
2018-09-22T20:28:00.428Z,46.00
2018-09-22T20:30:28.682Z,45.90
2018-09-22T20:32:56.851Z,46.00
2018-09-22T20:35:25.478Z,46.10
2018-09-22T20:37:53.804Z,46.10
2018-09-22T20:40:22.016Z,46.10
2018-09-22T20:42:50.159Z,46.30
2018-09-22T20:45:18.578Z,46.30
2018-09-22T20:47:46.744Z,46.30
2018-09-22T20:50:14.933Z,46.20
2018-09-22T20:52:43.159Z,46.20
2018-09-22T20:55:11.499Z,46.30
2018-09-22T20:57:39.922Z,46.10
2018-09-22T21:00:08.816Z,46.00
2018-09-22T21:02:37.137Z,46.20
2018-09-22T21:05:05.507Z,46.10
2018-09-22T21:07:33.940Z,46.10
2018-09-22T21:10:02.090Z,46.00
2018-09-22T21:12:30.242Z,46.10
2018-09-22T21:14:58.973Z,46.00
2018-09-22T21:17:27.247Z,46.20
2018-09-22T21:19:55.354Z,46.20
2018-09-22T21:22:23.467Z,46.30
2018-09-22T21:24:52.148Z,46.40
2018-09-22T21:27:20.535Z,46.40
2018-09-22T21:29:48.870Z,46.40
2018-09-22T21:32:16.980Z,46.40
2018-09-22T21:34:45.220Z,46.30
2018-09-22T21:37:13.428Z,46.30
2018-09-22T21:39:41.563Z,46.20
2018-09-22T21:42:09.712Z,46.30
2018-09-22T21:44:38.392Z,46.20
2018-09-22T21:47:06.664Z,46.20
2018-09-22T21:49:34.771Z,46.30
2018-09-22T21:52:03.196Z,46.40
2018-09-22T21:54:31.764Z,46.40
2018-09-22T21:57:00.083Z,46.30
2018-09-22T21:59:28.215Z,46.30
2018-09-22T22:01:57.454Z,46.40
2018-09-22T22:04:25.940Z,46.30
2018-09-22T22:06:54.283Z,46.30
2018-09-22T22:09:22.459Z,46.20
2018-09-22T22:11:50.667Z,46.20
2018-09-22T22:14:19.023Z,46.20
2018-09-22T22:16:47.395Z,46.30
2018-09-22T22:19:15.557Z,46.40
2018-09-22T22:21:43.673Z,46.70
2018-09-22T22:24:11.947Z,46.30
2018-09-22T22:26:40.109Z,46.20
2018-09-22T22:29:08.452Z,46.40
2018-09-22T22:31:37.227Z,46.50
2018-09-22T22:34:05.606Z,46.40
2018-09-22T22:36:33.746Z,46.40
2018-09-22T22:39:01.851Z,46.30
2018-09-22T22:41:30.100Z,46.40
2018-09-22T22:43:58.227Z,46.30
2018-09-22T22:46:26.491Z,46.30
2018-09-22T22:48:54.961Z,46.30
2018-09-22T22:51:23.159Z,46.20
2018-09-22T22:53:51.456Z,46.30
2018-09-22T22:56:19.601Z,46.30
2018-09-22T22:58:47.742Z,46.30
2018-09-22T23:01:16.867Z,46.40
2018-09-22T23:03:45.015Z,46.30
2018-09-22T23:06:13.247Z,46.30
2018-09-22T23:08:41.368Z,46.30
2018-09-22T23:11:10.373Z,46.30
2018-09-22T23:13:38.487Z,46.30
2018-09-22T23:16:06.631Z,46.30
2018-09-22T23:18:34.791Z,46.30
2018-09-22T23:21:03.628Z,46.30
2018-09-22T23:23:32.107Z,46.20
2018-09-22T23:26:00.232Z,46.30
2018-09-22T23:28:28.355Z,46.40
2018-09-22T23:30:56.699Z,46.40
2018-09-22T23:33:24.952Z,46.30
2018-09-22T23:35:53.120Z,46.30
2018-09-22T23:38:21.414Z,46.30
2018-09-22T23:40:49.939Z,46.30
2018-09-22T23:43:18.313Z,46.30
2018-09-22T23:45:46.489Z,46.30
2018-09-22T23:48:14.889Z,46.40
2018-09-22T23:50:43.343Z,46.40
2018-09-22T23:53:11.696Z,46.30
2018-09-22T23:55:40.088Z,46.30
2018-09-22T23:58:08.428Z,46.20
